createdAt,value
2023-01-07T00:00:38.446Z,26.20
2023-01-07T00:03:52.325Z,25.70
2023-01-07T00:06:54.411Z,25.40
2023-01-07T00:09:56.688Z,25.50
2023-01-07T00:12:58.644Z,25.90
2023-01-07T00:16:03.874Z,26.20
2023-01-07T00:19:08.143Z,26.70
2023-01-07T00:22:10.449Z,26.50
2023-01-07T00:25:12.433Z,26.00
2023-01-07T00:28:14.769Z,26.00
2023-01-07T00:31:28.358Z,26.10
2023-01-07T00:34:32.014Z,26.20
2023-01-07T00:37:52.059Z,26.00
2023-01-07T00:40:54.492Z,26.30
2023-01-07T00:43:56.570Z,26.40
2023-01-07T00:46:59.611Z,26.10
2023-01-07T00:50:01.662Z,26.10
2023-01-07T00:53:04.703Z,26.30
2023-01-07T00:56:07.023Z,26.80
2023-01-07T00:59:09.352Z,27.20
2023-01-07T01:02:11.485Z,27.90
2023-01-07T01:05:14.737Z,28.40
2023-01-07T01:08:18.043Z,28.60
2023-01-07T01:11:20.280Z,28.50
2023-01-07T01:14:22.288Z,28.40
2023-01-07T01:17:24.527Z,28.50
2023-01-07T01:20:26.559Z,28.30
2023-01-07T01:23:28.759Z,28.50
2023-01-07T01:26:30.812Z,28.40
2023-01-07T01:29:33.139Z,28.30
2023-01-07T01:32:35.205Z,28.30
2023-01-07T01:35:41.371Z,28.30
2023-01-07T01:38:43.348Z,28.10
2023-01-07T01:41:45.936Z,28.10
2023-01-07T01:44:57.940Z,28.00
2023-01-07T01:48:05.112Z,28.00
2023-01-07T01:51:10.909Z,28.10
2023-01-07T01:54:16.228Z,28.10
2023-01-07T01:57:20.449Z,28.30
2023-01-07T02:00:22.765Z,28.30
2023-01-07T02:03:27.280Z,28.20
2023-01-07T02:06:32.655Z,28.20
2023-01-07T02:09:34.686Z,28.20
2023-01-07T02:12:55.587Z,28.10
2023-01-07T02:16:01.457Z,27.90
2023-01-07T02:19:28.528Z,28.00
2023-01-07T02:22:45.451Z,28.00
2023-01-07T02:25:47.635Z,28.00
2023-01-07T02:29:01.398Z,28.20
2023-01-07T02:32:17.665Z,28.30
2023-01-07T02:35:31.978Z,28.30
2023-01-07T02:39:08.324Z,28.10
2023-01-07T02:42:25.615Z,28.10
2023-01-07T02:45:32.095Z,28.20
2023-01-07T02:48:35.533Z,28.30
2023-01-07T02:51:40.093Z,28.10
2023-01-07T02:54:42.177Z,28.00
2023-01-07T02:58:22.224Z,27.90
2023-01-07T03:01:34.241Z,27.80
2023-01-07T03:04:40.439Z,27.70
2023-01-07T03:08:07.710Z,27.60
2023-01-07T03:11:11.589Z,27.70
2023-01-07T03:14:23.386Z,27.60
2023-01-07T03:18:01.069Z,27.60
2023-01-07T03:21:08.539Z,27.60
2023-01-07T03:24:11.052Z,27.50
2023-01-07T03:27:14.913Z,27.40
2023-01-07T03:30:19.612Z,27.50
2023-01-07T03:33:43.774Z,27.60
2023-01-07T03:36:53.426Z,27.60
2023-01-07T03:39:56.074Z,27.70
2023-01-07T03:42:59.665Z,27.60
2023-01-07T03:46:01.953Z,27.70
2023-01-07T03:49:04.830Z,27.60
2023-01-07T03:52:06.790Z,27.60
2023-01-07T03:55:10.526Z,27.60
2023-01-07T03:58:12.476Z,27.50
2023-01-07T04:01:14.848Z,27.60
2023-01-07T04:04:17.248Z,27.60
2023-01-07T04:07:19.811Z,27.70
2023-01-07T04:10:21.865Z,27.60
2023-01-07T04:13:24.179Z,27.70
2023-01-07T04:16:29.425Z,27.60
2023-01-07T04:19:31.936Z,27.60
2023-01-07T04:22:34.042Z,27.60
2023-01-07T04:25:36.377Z,27.50
2023-01-07T04:28:38.380Z,27.50
2023-01-07T04:31:40.647Z,27.60
2023-01-07T04:34:42.605Z,27.60
2023-01-07T04:37:44.894Z,27.60
2023-01-07T04:40:46.953Z,27.70
2023-01-07T04:43:49.306Z,27.60
2023-01-07T04:46:51.264Z,27.60
2023-01-07T04:49:53.552Z,27.50
2023-01-07T04:52:55.550Z,27.50
2023-01-07T04:55:57.921Z,27.50
2023-01-07T04:58:59.956Z,27.50
2023-01-07T05:02:02.548Z,27.60
2023-01-07T05:05:05.350Z,27.60
2023-01-07T05:08:07.601Z,27.50
2023-01-07T05:11:09.646Z,27.50
2023-01-07T05:14:12.535Z,27.40
2023-01-07T05:17:14.553Z,27.40
2023-01-07T05:20:16.889Z,27.40
2023-01-07T05:23:18.894Z,27.30
2023-01-07T05:26:21.113Z,27.30
2023-01-07T05:29:23.109Z,27.20
2023-01-07T05:32:25.375Z,27.30
2023-01-07T05:35:27.399Z,27.20
2023-01-07T05:38:30.481Z,27.20
2023-01-07T05:41:32.576Z,27.20
2023-01-07T05:44:34.780Z,27.20
2023-01-07T05:47:39.415Z,27.10
2023-01-07T05:50:42.450Z,27.00
2023-01-07T05:53:44.452Z,27.20
2023-01-07T05:56:46.686Z,27.20
2023-01-07T05:59:48.655Z,27.20
2023-01-07T06:02:50.941Z,27.20
2023-01-07T06:05:53.018Z,27.10
2023-01-07T06:08:55.287Z,27.20
2023-01-07T06:11:57.689Z,27.20
2023-01-07T06:14:59.936Z,27.20
2023-01-07T06:18:01.939Z,27.30
2023-01-07T06:21:04.373Z,27.20
2023-01-07T06:24:07.564Z,27.20
2023-01-07T06:27:10.646Z,27.20
2023-01-07T06:30:12.863Z,27.20
2023-01-07T06:33:16.416Z,27.30
2023-01-07T06:36:19.626Z,27.30
2023-01-07T06:39:21.927Z,27.30
2023-01-07T06:42:24.109Z,27.30
2023-01-07T06:45:26.407Z,27.30
2023-01-07T06:48:28.384Z,27.30
2023-01-07T06:51:30.879Z,27.40
2023-01-07T06:54:33.849Z,27.40
2023-01-07T06:57:36.748Z,27.60
2023-01-07T07:00:38.694Z,27.50
2023-01-07T07:03:41.051Z,27.50
2023-01-07T07:06:43.071Z,27.40
2023-01-07T07:09:46.076Z,27.30
2023-01-07T07:12:48.049Z,27.20
2023-01-07T07:15:53.446Z,27.20
2023-01-07T07:18:57.564Z,27.00
2023-01-07T07:22:00.158Z,27.00
2023-01-07T07:25:02.203Z,27.00
2023-01-07T07:28:05.019Z,27.00
2023-01-07T07:31:07.749Z,27.00
2023-01-07T07:34:11.120Z,27.00
2023-01-07T07:37:13.088Z,27.00
2023-01-07T07:40:15.452Z,27.00
2023-01-07T07:43:17.440Z,27.20
2023-01-07T07:46:20.156Z,27.20
2023-01-07T07:49:22.162Z,27.30
2023-01-07T07:52:24.603Z,27.90
2023-01-07T07:55:27.799Z,27.30
2023-01-07T07:58:30.150Z,27.30
2023-01-07T08:01:32.317Z,27.40
2023-01-07T08:04:36.216Z,27.30
2023-01-07T08:07:38.647Z,27.30
2023-01-07T08:10:41.381Z,27.30
2023-01-07T08:13:43.534Z,27.40
2023-01-07T08:16:46.046Z,27.30
2023-01-07T08:19:48.082Z,27.20
2023-01-07T08:22:51.776Z,27.20
2023-01-07T08:25:53.977Z,27.20
2023-01-07T08:28:56.404Z,27.20
2023-01-07T08:31:58.449Z,27.40
2023-01-07T08:35:00.721Z,27.20
2023-01-07T08:38:08.143Z,27.20
2023-01-07T08:41:12.748Z,27.20
2023-01-07T08:44:14.746Z,27.10
2023-01-07T08:47:16.975Z,27.10
2023-01-07T08:50:20.202Z,27.20
2023-01-07T08:53:23.854Z,27.10
2023-01-07T08:56:25.946Z,27.20
2023-01-07T08:59:28.250Z,27.20
2023-01-07T09:02:30.292Z,27.30
2023-01-07T09:05:34.521Z,27.40
2023-01-07T09:08:37.678Z,27.40
2023-01-07T09:11:39.950Z,27.40
2023-01-07T09:14:41.918Z,27.40
2023-01-07T09:17:44.263Z,27.20
2023-01-07T09:20:46.277Z,27.20
2023-01-07T09:23:48.555Z,27.50
2023-01-07T09:26:50.604Z,27.50
2023-01-07T09:29:54.359Z,27.40
2023-01-07T09:32:56.464Z,27.40
2023-01-07T09:35:58.882Z,27.40
2023-01-07T09:39:01.346Z,27.30
2023-01-07T09:42:15.526Z,27.20
2023-01-07T09:45:23.208Z,27.10
2023-01-07T09:48:39.092Z,27.20
2023-01-07T09:51:45.546Z,27.30
2023-01-07T09:54:52.228Z,27.20
2023-01-07T09:57:54.202Z,27.40
2023-01-07T10:01:23.249Z,27.50
2023-01-07T10:04:49.809Z,27.90
2023-01-07T10:08:31.189Z,27.30
2023-01-07T10:12:12.092Z,27.30
2023-01-07T10:15:46.357Z,27.60
2023-01-07T10:19:05.601Z,28.00
2023-01-07T10:22:19.607Z,28.10
2023-01-07T10:25:32.974Z,27.60
2023-01-07T10:28:50.794Z,27.50
2023-01-07T10:31:56.936Z,27.60
2023-01-07T10:35:01.166Z,27.60
2023-01-07T10:38:05.307Z,27.60
2023-01-07T10:41:18.489Z,27.60
2023-01-07T10:44:26.477Z,27.50
2023-01-07T10:47:37.772Z,27.60
2023-01-07T10:50:57.543Z,27.40
2023-01-07T10:54:24.615Z,27.40
2023-01-07T10:57:30.126Z,27.40
2023-01-07T11:00:33.008Z,27.50
2023-01-07T11:03:35.186Z,27.80
2023-01-07T11:06:45.860Z,27.60
2023-01-07T11:09:48.578Z,27.50
2023-01-07T11:13:04.309Z,27.40
2023-01-07T11:16:24.839Z,27.50
2023-01-07T11:19:45.920Z,27.50
2023-01-07T11:22:47.941Z,27.40
2023-01-07T11:25:56.204Z,27.40
2023-01-07T11:29:13.871Z,27.40
2023-01-07T11:32:26.196Z,27.40
2023-01-07T11:35:29.103Z,27.40
2023-01-07T11:38:36.075Z,27.20
2023-01-07T11:41:51.006Z,27.20
2023-01-07T11:45:31.681Z,27.50
2023-01-07T11:48:36.104Z,27.50
2023-01-07T11:51:40.404Z,27.20
2023-01-07T11:54:42.474Z,27.40
2023-01-07T11:58:03.482Z,27.40
2023-01-07T12:01:30.543Z,27.70
2023-01-07T12:04:40.323Z,27.60
2023-01-07T12:07:50.237Z,27.60
2023-01-07T12:10:57.787Z,27.70
2023-01-07T12:14:07.945Z,27.90
2023-01-07T12:17:21.885Z,28.00
2023-01-07T12:21:02.837Z,27.80
2023-01-07T12:24:17.062Z,27.90
2023-01-07T12:27:34.933Z,27.90
2023-01-07T12:30:58.996Z,28.10
2023-01-07T12:34:01.183Z,28.10
2023-01-07T12:37:40.121Z,28.00
2023-01-07T12:40:51.466Z,28.10
2023-01-07T12:44:22.300Z,28.00
2023-01-07T12:47:38.651Z,28.10
2023-01-07T12:50:45.192Z,28.10
2023-01-07T12:54:02.024Z,28.10
2023-01-07T12:57:17.521Z,28.00
2023-01-07T13:00:26.754Z,28.30
2023-01-07T13:03:37.523Z,28.30
2023-01-07T13:06:53.174Z,28.40
2023-01-07T13:10:05.593Z,28.00
2023-01-07T13:13:16.407Z,28.00
2023-01-07T13:16:18.844Z,28.00
2023-01-07T13:19:20.892Z,28.10
2023-01-07T13:22:40.765Z,28.20
2023-01-07T13:25:57.815Z,28.40
2023-01-07T13:29:09.094Z,28.30
2023-01-07T13:32:31.573Z,28.20
2023-01-07T13:35:47.200Z,28.20
2023-01-07T13:39:01.028Z,28.10
2023-01-07T13:42:24.888Z,28.10
2023-01-07T13:45:35.114Z,28.10
2023-01-07T13:48:38.538Z,28.10
2023-01-07T13:51:40.625Z,28.20
2023-01-07T13:54:48.781Z,28.30
2023-01-07T13:57:51.026Z,28.30
2023-01-07T14:01:09.359Z,28.30
2023-01-07T14:04:34.150Z,28.20
2023-01-07T14:07:53.990Z,28.40
2023-01-07T14:10:56.019Z,28.40
2023-01-07T14:14:10.539Z,28.20
2023-01-07T14:17:24.550Z,28.40
2023-01-07T14:20:35.636Z,28.20
2023-01-07T14:24:04.018Z,28.20
2023-01-07T14:27:28.110Z,28.20
2023-01-07T14:30:44.675Z,28.30
2023-01-07T14:33:58.141Z,28.30
2023-01-07T14:37:06.372Z,28.20
2023-01-07T14:40:36.852Z,28.10
2023-01-07T14:43:42.101Z,28.10
2023-01-07T14:46:45.133Z,28.10
2023-01-07T14:50:12.535Z,28.10
2023-01-07T14:53:26.926Z,28.10
2023-01-07T14:57:02.090Z,28.10
2023-01-07T15:00:24.623Z,28.20
2023-01-07T15:03:41.441Z,28.10
2023-01-07T15:06:44.320Z,28.10
2023-01-07T15:10:38.864Z,28.20
2023-01-07T15:14:13.929Z,28.30
2023-01-07T15:17:16.593Z,28.10
2023-01-07T15:20:19.055Z,28.10
2023-01-07T15:23:44.222Z,28.10
2023-01-07T15:27:00.954Z,28.20
2023-01-07T15:30:21.722Z,28.10
2023-01-07T15:33:32.749Z,28.60
2023-01-07T15:36:43.204Z,28.10
2023-01-07T15:39:52.317Z,28.00
2023-01-07T15:42:58.713Z,27.90
2023-01-07T15:46:02.156Z,28.00
2023-01-07T15:49:09.800Z,28.00
2023-01-07T15:52:23.611Z,28.00
2023-01-07T15:55:34.158Z,28.00
2023-01-07T15:58:40.659Z,28.00
2023-01-07T16:01:48.592Z,28.10
2023-01-07T16:04:57.167Z,28.10
2023-01-07T16:08:01.262Z,28.20
2023-01-07T16:11:20.559Z,28.10
2023-01-07T16:14:26.017Z,28.10
2023-01-07T16:17:28.609Z,28.20
2023-01-07T16:20:34.849Z,28.50
2023-01-07T16:23:38.606Z,28.40
2023-01-07T16:26:48.650Z,28.40
2023-01-07T16:29:58.633Z,28.40
2023-01-07T16:33:01.072Z,28.40
2023-01-07T16:36:08.981Z,28.40
2023-01-07T16:39:21.475Z,28.30
2023-01-07T16:42:24.099Z,28.30
2023-01-07T16:45:29.243Z,28.30
2023-01-07T16:48:31.487Z,28.30
2023-01-07T16:51:36.476Z,28.20
2023-01-07T16:54:41.287Z,28.10
2023-01-07T16:57:45.109Z,28.10
2023-01-07T17:00:52.170Z,28.10
2023-01-07T17:03:59.535Z,28.10
2023-01-07T17:07:02.639Z,28.10
2023-01-07T17:10:05.503Z,28.10
2023-01-07T17:13:32.624Z,28.00
2023-01-07T17:16:35.611Z,27.90
2023-01-07T17:19:46.181Z,27.90
2023-01-07T17:22:49.776Z,28.00
2023-01-07T17:26:05.547Z,28.00
2023-01-07T17:29:13.098Z,28.00
2023-01-07T17:32:16.079Z,28.00
2023-01-07T17:35:21.086Z,27.90
2023-01-07T17:38:23.615Z,27.70
2023-01-07T17:41:44.169Z,27.80
2023-01-07T17:44:49.288Z,27.90
2023-01-07T17:47:52.808Z,27.80
2023-01-07T17:50:58.092Z,27.80
2023-01-07T17:54:00.164Z,27.80
2023-01-07T17:57:02.510Z,27.70
2023-01-07T18:00:05.045Z,27.70
2023-01-07T18:03:07.389Z,27.60
2023-01-07T18:06:18.810Z,27.70
2023-01-07T18:09:21.121Z,27.70
2023-01-07T18:12:33.688Z,27.80
2023-01-07T18:15:35.913Z,27.70
2023-01-07T18:18:37.899Z,27.70
2023-01-07T18:21:40.613Z,27.70
2023-01-07T18:24:42.573Z,27.60
2023-01-07T18:27:45.295Z,27.60
2023-01-07T18:30:47.691Z,27.60
2023-01-07T18:33:49.959Z,27.60
2023-01-07T18:36:53.436Z,27.60
2023-01-07T18:40:01.977Z,27.60
2023-01-07T18:43:04.101Z,27.60
2023-01-07T18:46:09.909Z,28.00
2023-01-07T18:49:12.725Z,27.50
2023-01-07T18:52:14.986Z,27.40
2023-01-07T18:55:19.252Z,27.60
2023-01-07T18:58:22.911Z,27.50
2023-01-07T19:01:25.454Z,27.60
2023-01-07T19:04:28.020Z,27.60
2023-01-07T19:07:30.321Z,27.60
2023-01-07T19:10:32.707Z,27.60
2023-01-07T19:13:34.878Z,27.60
2023-01-07T19:16:39.299Z,27.40
2023-01-07T19:19:48.208Z,27.10
2023-01-07T19:22:51.309Z,27.00
2023-01-07T19:25:58.216Z,26.80
2023-01-07T19:29:01.113Z,26.70
2023-01-07T19:32:03.403Z,26.70
2023-01-07T19:35:06.338Z,26.50
2023-01-07T19:38:08.418Z,26.30
2023-01-07T19:41:12.948Z,26.50
2023-01-07T19:44:15.169Z,26.40
2023-01-07T19:47:17.531Z,26.40
2023-01-07T19:50:19.635Z,26.10
2023-01-07T19:53:22.251Z,26.10
2023-01-07T19:56:24.315Z,26.10
2023-01-07T19:59:26.586Z,25.90
2023-01-07T20:02:28.880Z,25.90
2023-01-07T20:05:31.368Z,25.70
2023-01-07T20:08:34.174Z,25.70
2023-01-07T20:11:38.361Z,25.50
2023-01-07T20:14:42.260Z,25.70
2023-01-07T20:17:44.880Z,25.80
2023-01-07T20:21:00.101Z,25.70
2023-01-07T20:24:03.956Z,25.70
2023-01-07T20:27:06.099Z,25.90
2023-01-07T20:30:09.247Z,25.60
2023-01-07T20:33:12.250Z,25.30
2023-01-07T20:36:16.985Z,25.60
2023-01-07T20:39:19.172Z,25.50
2023-01-07T20:42:21.831Z,25.50
2023-01-07T20:45:23.882Z,25.40
2023-01-07T20:48:26.407Z,24.90
2023-01-07T20:51:28.622Z,25.20
2023-01-07T20:54:30.960Z,25.50
2023-01-07T20:57:33.210Z,25.50
2023-01-07T21:00:37.195Z,25.50
2023-01-07T21:03:40.189Z,25.00
2023-01-07T21:06:42.520Z,25.60
2023-01-07T21:09:44.921Z,25.60
2023-01-07T21:12:47.635Z,24.90
2023-01-07T21:15:50.786Z,25.20
2023-01-07T21:18:53.101Z,25.30
2023-01-07T21:21:55.199Z,25.00
2023-01-07T21:24:57.741Z,24.90
2023-01-07T21:27:59.914Z,24.90
2023-01-07T21:31:09.982Z,24.60
2023-01-07T21:34:15.490Z,24.60
2023-01-07T21:37:17.952Z,24.50
2023-01-07T21:40:20.214Z,24.50
2023-01-07T21:43:22.527Z,24.70
2023-01-07T21:46:24.689Z,24.80
2023-01-07T21:49:27.321Z,24.90
2023-01-07T21:52:29.359Z,24.90
2023-01-07T21:55:31.817Z,24.90
2023-01-07T21:58:35.908Z,25.30
2023-01-07T22:01:38.426Z,25.10
2023-01-07T22:04:40.753Z,24.80
2023-01-07T22:07:43.052Z,25.10
2023-01-07T22:10:48.554Z,25.80
2023-01-07T22:13:58.401Z,26.00
2023-01-07T22:17:00.502Z,26.20
2023-01-07T22:20:04.991Z,26.60
2023-01-07T22:23:07.964Z,26.70
2023-01-07T22:26:10.554Z,27.00
2023-01-07T22:29:14.968Z,26.90
2023-01-07T22:32:17.196Z,27.00
2023-01-07T22:35:19.178Z,27.10
2023-01-07T22:38:23.852Z,26.80
2023-01-07T22:41:29.223Z,26.80
2023-01-07T22:44:42.446Z,26.80
2023-01-07T22:47:49.517Z,26.60
2023-01-07T22:50:55.343Z,26.50
2023-01-07T22:53:59.357Z,26.40
2023-01-07T22:57:01.990Z,26.50
2023-01-07T23:00:07.779Z,26.50
2023-01-07T23:03:10.387Z,26.50
2023-01-07T23:06:14.782Z,26.30
2023-01-07T23:09:17.216Z,26.10
2023-01-07T23:12:19.178Z,26.10
2023-01-07T23:15:21.448Z,26.10
2023-01-07T23:18:23.450Z,26.30
2023-01-07T23:21:25.861Z,26.10
2023-01-07T23:24:27.884Z,26.00
2023-01-07T23:27:30.150Z,26.20
2023-01-07T23:30:32.180Z,26.10
2023-01-07T23:33:34.457Z,26.30
2023-01-07T23:36:37.965Z,26.20
2023-01-07T23:39:40.206Z,26.20
2023-01-07T23:42:45.650Z,26.40
2023-01-07T23:45:47.978Z,26.30
2023-01-07T23:48:50.137Z,26.40
2023-01-07T23:51:52.396Z,26.40
2023-01-07T23:54:54.391Z,26.40
2023-01-07T23:57:56.597Z,26.30
